Time;durP1;ratioP1;P1;durP2;ratioP2;P2;SDS_P1;SDS_P2;PMS_P1;PMS_P2;Temp;Humidity;BMP_temperature;BMP_pressure;BME280_temperature;BME280_humidity;BME280_pressure;Samples;Min_cycle;Max_cycle;Signal;HPM_P1;HPM_P2
2024/01/28 00:00:16;;;;;;;0.90;0.70;;;;;;;-143.84;82.11;45216.63;5032227;28;20437;-57
2024/01/28 00:02:43;;;;;;;0.90;0.77;;;;;;;-143.84;81.96;45239.50;5032114;28;20966;-57
2024/01/28 00:05:12;;;;;;;1.00;0.90;;;;;;;-143.84;82.29;45220.44;5032139;28;20851;-57
2024/01/28 00:07:41;;;;;;;1.03;0.93;;;;;;;-143.84;82.30;45224.25;5032065;28;20445;-57
2024/01/28 00:10:09;;;;;;;0.80;0.50;;;;;;;-143.84;81.94;45201.41;5032336;28;20438;-56
2024/01/28 00:12:37;;;;;;;0.83;0.57;;;;;;;-143.84;81.99;45247.09;5058621;28;20562;-57
2024/01/28 00:15:06;;;;;;;0.80;0.40;;;;;;;-143.84;81.56;45231.88;5071527;28;20444;-57
2024/01/28 00:17:33;;;;;;;0.80;0.50;;;;;;;-143.84;81.84;45252.81;5071741;28;20458;-56
2024/01/28 00:20:00;;;;;;;1.30;1.20;;;;;;;-143.84;82.09;45201.41;5071692;28;20508;-57
2024/01/28 00:22:29;;;;;;;0.83;0.60;;;;;;;-143.84;82.35;45231.88;5071395;28;20438;-57
2024/01/28 00:24:57;;;;;;;1.10;1.00;;;;;;;-143.84;82.36;45235.69;5070851;28;20440;-56
2024/01/28 00:27:25;;;;;;;1.00;0.60;;;;;;;-143.84;82.60;45243.31;5079055;28;20478;-57
2024/01/28 00:29:52;;;;;;;0.80;0.60;;;;;;;-143.84;82.55;45222.34;5091724;28;20439;-57
2024/01/28 00:32:20;;;;;;;0.90;0.80;;;;;;;-143.84;82.24;45247.09;5091612;28;20454;-57
2024/01/28 00:34:48;;;;;;;0.80;0.50;;;;;;;-143.84;82.55;45250.91;5091716;28;20446;-57
2024/01/28 00:37:15;;;;;;;1.33;1.23;;;;;;;-143.84;82.35;45224.25;5091378;28;20512;-57
2024/01/28 00:39:42;;;;;;;1.37;1.27;;;;;;;-143.84;81.84;45254.72;5091539;28;20446;-57
2024/01/28 00:42:10;;;;;;;0.83;0.60;;;;;;;-143.84;81.67;45226.16;5091451;28;20439;-57
2024/01/28 00:44:37;;;;;;;0.80;0.50;;;;;;;-143.84;81.24;45231.88;5091371;28;20439;-57
2024/01/28 00:47:05;;;;;;;0.80;0.50;;;;;;;-143.84;81.13;45228.06;5091376;28;20851;-57
2024/01/28 00:49:32;;;;;;;0.90;0.60;;;;;;;-143.84;80.91;45237.59;5091758;28;20441;-57
2024/01/28 00:51:59;;;;;;;0.80;0.50;;;;;;;-143.84;81.58;45224.25;5091535;28;20447;-57
2024/01/28 00:54:27;;;;;;;0.93;0.80;;;;;;;-143.84;81.21;45212.84;5091227;28;20428;-57
2024/01/28 00:56:54;;;;;;;0.80;0.60;;;;;;;-143.84;81.37;45226.16;5091197;28;20495;-57
2024/01/28 00:59:23;;;;;;;1.93;1.13;;;;;;;-143.84;81.98;45243.31;5091257;28;20467;-57
2024/01/28 01:01:50;;;;;;;0.80;0.50;;;;;;;-143.84;82.16;45224.25;5085401;28;20956;-57
2024/01/28 01:04:17;;;;;;;0.80;0.50;;;;;;;-143.84;82.34;45212.84;5070825;28;20435;-57
2024/01/28 01:06:44;;;;;;;1.17;1.07;;;;;;;-143.84;82.76;45245.19;5070979;28;20506;-57
2024/01/28 01:09:12;;;;;;;1.37;1.07;;;;;;;-143.84;82.92;45239.50;5089921;28;20867;-57
2024/01/28 01:11:39;;;;;;;2.63;2.33;;;;;;;-143.84;83.44;45233.78;5090848;28;20545;-57
2024/01/28 01:14:06;;;;;;;0.80;0.60;;;;;;;-143.84;83.69;45239.50;5091016;28;20439;-57
2024/01/28 01:16:35;;;;;;;1.43;1.17;;;;;;;-143.84;83.74;45231.88;5090842;28;20544;-57
2024/01/28 01:19:02;;;;;;;2.10;1.00;;;;;;;-143.84;84.02;45224.25;5090810;28;20441;-57
2024/01/28 01:21:29;;;;;;;1.30;1.20;;;;;;;-143.84;84.06;45222.34;5090837;28;20434;-57
2024/01/28 01:23:56;;;;;;;0.80;0.60;;;;;;;-143.84;84.21;45222.34;5090952;28;20435;-57
2024/01/28 01:26:23;;;;;;;1.40;0.60;;;;;;;-143.84;84.00;45235.69;5090676;28;20507;-57
2024/01/28 01:28:51;;;;;;;0.80;0.40;;;;;;;-143.84;84.12;45218.53;5090656;28;20454;-56
2024/01/28 01:31:18;;;;;;;0.80;0.40;;;;;;;-143.84;84.73;45235.69;5090471;28;20943;-57
2024/01/28 01:33:46;;;;;;;0.80;0.40;;;;;;;-143.84;84.39;45220.44;5090682;28;20449;-57
2024/01/28 01:36:13;;;;;;;1.97;1.87;;;;;;;-143.84;84.46;45247.09;5089938;28;20474;-57
2024/01/28 01:38:41;;;;;;;1.53;1.43;;;;;;;-143.84;84.55;45241.41;5090055;28;20534;-57
2024/01/28 01:41:08;;;;;;;2.40;1.00;;;;;;;-143.84;84.73;45229.97;5090609;28;20497;-57
2024/01/28 01:43:35;;;;;;;0.80;0.60;;;;;;;-143.84;84.75;45228.06;5090525;28;20512;-57
2024/01/28 01:46:02;;;;;;;7.20;1.77;;;;;;;-143.84;84.72;45249.00;5090731;28;20445;-57
2024/01/28 01:48:29;;;;;;;0.90;0.70;;;;;;;-143.84;85.37;45224.25;5090470;28;21207;-57
2024/01/28 01:50:58;;;;;;;0.80;0.50;;;;;;;-143.84;85.40;45249.00;5090548;28;20448;-56
2024/01/28 01:53:25;;;;;;;0.80;0.50;;;;;;;-143.84;85.60;45262.34;5090169;28;20434;-57
2024/01/28 01:55:53;;;;;;;0.80;0.50;;;;;;;-143.84;85.86;45224.25;5089970;28;21079;-57
2024/01/28 01:58:20;;;;;;;1.23;0.80;;;;;;;-143.84;86.53;45249.00;5090285;28;20433;-56
2024/01/28 02:00:48;;;;;;;1.57;0.80;;;;;;;-143.84;86.33;45216.63;5089877;28;20440;-56
2024/01/28 02:03:15;;;;;;;0.80;0.50;;;;;;;-143.84;87.13;45239.50;5072379;28;20449;-57
2024/01/28 02:05:42;;;;;;;0.80;0.50;;;;;;;-143.84;87.35;45254.72;5069770;28;20441;-57
2024/01/28 02:08:10;;;;;;;0.80;0.50;;;;;;;-143.84;87.56;45226.16;5069711;28;20981;-57
2024/01/28 02:10:38;;;;;;;2.50;2.00;;;;;;;-143.84;87.65;45209.03;5069657;28;20437;-56
2024/01/28 02:13:05;;;;;;;0.80;0.50;;;;;;;-143.84;87.67;45228.06;5069317;28;20481;-57
2024/01/28 02:15:37;;;;;;;1.53;0.80;;;;;;;-143.84;88.29;45249.00;5069876;28;20504;-56
2024/01/28 02:18:05;;;;;;;0.80;0.60;;;;;;;-143.84;88.02;45231.88;5069252;28;20834;-57
2024/01/28 02:20:32;;;;;;;0.80;0.60;;;;;;;-143.84;88.39;45231.88;5069458;28;20442;-56
2024/01/28 02:22:59;;;;;;;1.57;0.80;;;;;;;-143.84;88.45;45235.69;5069340;28;20430;-57
2024/01/28 02:25:28;;;;;;;0.80;0.50;;;;;;;-143.84;88.45;45237.59;5069357;28;20448;-56
2024/01/28 02:27:55;;;;;;;0.90;0.77;;;;;;;-143.84;88.75;45245.19;5069274;28;20449;-57
2024/01/28 02:30:22;;;;;;;1.07;0.77;;;;;;;-143.84;88.85;45254.72;5069329;28;20443;-57
2024/01/28 02:32:50;;;;;;;1.47;1.37;;;;;;;-143.84;88.78;45264.25;5069399;28;21009;-56
2024/01/28 02:35:18;;;;;;;0.80;0.50;;;;;;;-143.84;88.82;45260.44;5069098;28;20501;-56
2024/01/28 02:37:45;;;;;;;0.90;0.70;;;;;;;-143.84;88.44;45260.44;5069021;28;20517;-57
2024/01/28 02:40:13;;;;;;;0.80;0.60;;;;;;;-143.84;88.20;45258.53;5069130;28;20449;-56
2024/01/28 02:42:42;;;;;;;0.80;0.60;;;;;;;-143.84;88.28;45273.78;5069104;28;20455;-56
2024/01/28 02:45:09;;;;;;;2.30;2.10;;;;;;;-143.84;88.64;45249.00;5069033;28;20813;-56
2024/01/28 02:47:37;;;;;;;0.80;0.50;;;;;;;-143.84;87.96;45254.72;5068971;28;20491;-57
2024/01/28 02:50:04;;;;;;;0.80;0.50;;;;;;;-143.84;87.67;45247.09;5069366;28;20442;-57
2024/01/28 02:52:31;;;;;;;0.90;0.60;;;;;;;-143.84;87.98;45262.34;5069074;28;21072;-56
2024/01/28 02:54:58;;;;;;;0.80;0.50;;;;;;;-143.84;88.19;45233.78;5069034;28;20986;-57
2024/01/28 02:57:25;;;;;;;1.00;0.90;;;;;;;-143.84;88.47;45212.84;5068766;28;20478;-56
2024/01/28 02:59:54;;;;;;;3.63;0.83;;;;;;;-143.84;88.44;45224.25;5068260;28;20448;-56
2024/01/28 03:02:21;;;;;;;1.23;0.93;;;;;;;-143.84;88.43;45241.41;5068529;28;20899;-57
2024/01/28 03:04:48;;;;;;;0.80;0.40;;;;;;;-143.84;88.15;45241.41;5068517;28;20438;-56
2024/01/28 03:07:16;;;;;;;0.80;0.40;;;;;;;-143.84;88.36;45260.44;5068576;28;20441;-57
2024/01/28 03:09:43;;;;;;;0.80;0.50;;;;;;;-143.84;87.95;45245.19;5068820;28;20429;-56
2024/01/28 03:12:10;;;;;;;0.80;0.60;;;;;;;-143.84;88.33;45216.63;5069268;28;20539;-56
2024/01/28 03:14:37;;;;;;;0.80;0.50;;;;;;;-143.84;87.95;45226.16;5076410;28;20437;-56
2024/01/28 03:17:06;;;;;;;0.80;0.70;;;;;;;-143.84;87.86;45258.53;5069606;28;20546;-57
2024/01/28 03:19:32;;;;;;;1.63;0.70;;;;;;;-143.84;87.61;45241.41;5074994;28;20448;-56
2024/01/28 03:21:59;;;;;;;0.80;0.50;;;;;;;-143.84;87.70;45241.41;5080874;28;20486;-56
2024/01/28 03:24:26;;;;;;;0.80;0.60;;;;;;;-143.84;87.52;45233.78;5076081;28;20448;-57
2024/01/28 03:26:52;;;;;;;0.80;0.40;;;;;;;-143.84;87.03;45275.66;5082199;28;20456;-57
2024/01/28 03:29:20;;;;;;;0.80;0.40;;;;;;;-143.84;86.65;45243.31;5086458;28;20456;-57
2024/01/28 03:31:47;;;;;;;0.80;0.60;;;;;;;-143.84;86.42;45220.44;5076129;28;20517;-56
2024/01/28 03:34:16;;;;;;;0.80;0.50;;;;;;;-143.84;85.87;45235.69;5079463;28;21136;-56
2024/01/28 03:36:43;;;;;;;0.90;0.57;;;;;;;-143.84;84.95;45250.91;5070278;28;20480;-56
2024/01/28 03:39:11;;;;;;;0.80;0.53;;;;;;;-143.84;84.82;45247.09;5088977;28;20499;-56
2024/01/28 03:41:38;;;;;;;0.90;0.70;;;;;;;-143.84;83.70;45256.63;5082526;28;20448;-57
2024/01/28 03:44:05;;;;;;;0.90;0.87;;;;;;;-143.84;83.33;45226.16;5068356;28;20449;-56
2024/01/28 03:46:34;;;;;;;0.80;0.80;;;;;;;-143.84;82.33;45231.88;5082665;28;20434;-56
2024/01/28 03:49:01;;;;;;;0.80;0.50;;;;;;;-143.84;82.63;45258.53;5078735;28;20450;-56
2024/01/28 03:51:30;;;;;;;0.80;0.50;;;;;;;-143.84;82.75;45239.50;5079906;28;20449;-57
2024/01/28 03:53:57;;;;;;;2.80;2.33;;;;;;;-143.84;82.43;45252.81;5082872;28;20452;-57
2024/01/28 03:56:25;;;;;;;0.80;0.40;;;;;;;-143.84;82.58;45239.50;5076292;28;20525;-56
2024/01/28 03:58:52;;;;;;;1.00;0.90;;;;;;;-143.84;82.61;45226.16;5068510;28;20470;-56
2024/01/28 04:01:19;;;;;;;0.80;0.47;;;;;;;-143.84;82.95;45212.84;5086059;28;20438;-56
2024/01/28 04:03:47;;;;;;;0.80;0.50;;;;;;;-143.84;83.04;45249.00;5071858;28;20442;-57
2024/01/28 04:06:14;;;;;;;0.80;0.50;;;;;;;-143.84;82.62;45249.00;5071095;28;20476;-56
2024/01/28 04:08:43;;;;;;;0.90;0.70;;;;;;;-143.84;82.85;45250.91;5075128;28;20433;-57
2024/01/28 04:11:10;;;;;;;9.10;1.53;;;;;;;-143.84;83.21;45239.50;5077697;28;20440;-56
2024/01/28 04:13:37;;;;;;;0.80;0.50;;;;;;;-143.84;82.98;45218.53;5089280;28;20452;-56
2024/01/28 04:16:05;;;;;;;0.80;0.50;;;;;;;-143.84;82.87;45241.41;5073630;28;20520;-57
2024/01/28 04:18:32;;;;;;;0.97;0.87;;;;;;;-143.84;83.18;45243.31;5079324;28;20529;-57
2024/01/28 04:20:59;;;;;;;0.80;0.50;;;;;;;-143.84;82.96;45228.06;5086521;28;20947;-57
2024/01/28 04:23:26;;;;;;;0.80;0.50;;;;;;;-143.84;82.61;45250.91;5071696;28;20438;-57
2024/01/28 04:25:55;;;;;;;0.80;0.50;;;;;;;-143.84;82.70;45231.88;5071590;28;20441;-57
2024/01/28 04:28:25;;;;;;;0.80;0.67;;;;;;;-143.84;82.33;45256.63;5071604;28;20447;-57
2024/01/28 04:30:52;;;;;;;0.80;0.40;;;;;;;-143.84;82.61;45231.88;5071494;28;20446;-57
2024/01/28 04:33:19;;;;;;;0.80;0.57;;;;;;;-143.84;82.23;45243.31;5078547;28;20564;-57
2024/01/28 04:35:47;;;;;;;2.33;1.07;;;;;;;-143.84;81.94;45233.78;5071608;28;20518;-57
2024/01/28 04:38:14;;;;;;;0.90;0.60;;;;;;;-143.84;82.25;45224.25;5087613;28;20472;-57
2024/01/28 04:40:41;;;;;;;0.80;0.50;;;;;;;-143.84;82.41;45262.34;5091687;28;20444;-56
2024/01/28 04:43:11;;;;;;;0.80;0.40;;;;;;;-143.84;82.79;45233.78;5073666;28;20480;-57
2024/01/28 04:45:39;;;;;;;0.80;0.40;;;;;;;-143.84;82.50;45241.41;5076327;28;20467;-57
2024/01/28 04:48:07;;;;;;;0.80;0.50;;;;;;;-143.84;82.95;45226.16;5088917;28;20445;-57
2024/01/28 04:50:34;;;;;;;0.93;0.83;;;;;;;-143.84;82.67;45247.09;5070884;28;20940;-57
2024/01/28 04:53:01;;;;;;;3.10;1.60;;;;;;;-143.84;82.54;45222.34;5089033;28;20500;-56
2024/01/28 04:55:28;;;;;;;0.80;0.40;;;;;;;-143.84;83.39;45249.00;5091365;28;20964;-56
2024/01/28 04:57:55;;;;;;;0.80;0.50;;;;;;;-143.84;83.21;45250.91;5075221;28;20540;-56
2024/01/28 05:00:24;;;;;;;1.00;0.80;;;;;;;-143.84;83.63;45252.81;5071236;28;20442;-57
2024/01/28 05:02:55;;;;;;;0.80;0.40;;;;;;;-143.84;83.83;45224.25;5070731;28;20461;-56
2024/01/28 05:05:22;;;;;;;0.80;0.40;;;;;;;-143.84;83.64;45233.78;5082771;28;20468;-56
2024/01/28 05:07:49;;;;;;;0.80;0.40;;;;;;;-143.84;83.61;45226.16;5080084;28;20444;-57
2024/01/28 05:10:17;;;;;;;0.80;0.40;;;;;;;-143.84;83.75;45243.31;5084478;28;20438;-56
2024/01/28 05:12:45;;;;;;;1.23;1.13;;;;;;;-143.84;83.52;45258.53;5090531;28;20532;-56
2024/01/28 05:15:16;;;;;;;0.90;0.70;;;;;;;-143.84;83.88;45245.19;5091063;28;20451;-56
2024/01/28 05:17:45;;;;;;;2.70;0.90;;;;;;;-143.84;84.30;45218.53;5090870;28;20490;-56
2024/01/28 05:20:14;;;;;;;0.80;0.50;;;;;;;-143.84;84.45;45235.69;5090859;28;20953;-56
2024/01/28 05:22:41;;;;;;;0.80;0.40;;;;;;;-143.84;84.12;45258.53;5091067;28;20526;-57
2024/01/28 05:25:09;;;;;;;0.80;0.40;;;;;;;-143.84;84.43;45260.44;5091131;28;20432;-57
2024/01/28 05:27:37;;;;;;;1.13;0.93;;;;;;;-143.84;84.08;45233.78;5090769;28;20464;-57
2024/01/28 05:30:06;;;;;;;0.80;0.40;;;;;;;-143.84;84.00;45247.09;5090617;28;20440;-57
2024/01/28 05:32:33;;;;;;;0.80;0.40;;;;;;;-143.84;83.70;45222.34;5090472;28;20447;-57
2024/01/28 05:35:03;;;;;;;0.80;0.50;;;;;;;-143.84;84.05;45247.09;5090681;28;20442;-57
2024/01/28 05:37:31;;;;;;;0.80;0.40;;;;;;;-143.84;83.85;45254.72;5090444;28;20490;-57
2024/01/28 05:39:58;;;;;;;0.80;0.60;;;;;;;-143.84;84.18;45256.63;5090266;28;20444;-57
2024/01/28 05:42:25;;;;;;;1.00;0.90;;;;;;;-143.84;83.46;45228.06;5090257;28;20467;-57
2024/01/28 05:44:52;;;;;;;0.80;0.60;;;;;;;-143.84;83.53;45239.50;5090342;28;20468;-56
2024/01/28 05:47:19;;;;;;;0.80;0.40;;;;;;;-143.84;83.83;45237.59;5090280;28;20918;-57
2024/01/28 05:49:46;;;;;;;1.10;0.70;;;;;;;-143.84;84.07;45224.25;5090253;28;20458;-56
2024/01/28 05:52:15;;;;;;;0.80;0.40;;;;;;;-143.84;83.83;45250.91;5090462;28;20436;-57
2024/01/28 05:54:42;;;;;;;0.80;0.47;;;;;;;-143.84;83.92;45231.88;5089727;28;20456;-57
2024/01/28 05:57:09;;;;;;;0.80;0.53;;;;;;;-143.84;83.95;45235.69;5089870;28;20439;-56
2024/01/28 05:59:37;;;;;;;2.30;2.10;;;;;;;-143.84;84.24;45254.72;5089949;28;20454;-56
2024/01/28 06:02:04;;;;;;;1.00;0.63;;;;;;;-143.84;83.84;45239.50;5082447;28;20536;-56
2024/01/28 06:04:31;;;;;;;0.80;0.60;;;;;;;-143.84;84.05;45229.97;5069635;28;20528;-57
2024/01/28 06:07:00;;;;;;;0.80;0.60;;;;;;;-143.84;84.17;45231.88;5069810;28;20437;-57
2024/01/28 06:09:28;;;;;;;0.80;0.40;;;;;;;-143.84;83.91;45228.06;5069663;28;20524;-57
2024/01/28 06:11:55;;;;;;;0.80;0.57;;;;;;;-143.84;83.78;45224.25;5068825;28;20846;-57
2024/01/28 06:14:23;;;;;;;3.43;0.90;;;;;;;-143.84;84.27;45235.69;5089235;28;20988;-57
2024/01/28 06:16:51;;;;;;;2.50;1.40;;;;;;;-143.84;83.99;45233.78;5089237;28;20444;-57
2024/01/28 06:19:18;;;;;;;0.80;0.50;;;;;;;-143.84;83.91;45241.41;5089360;28;20479;-57
2024/01/28 06:21:45;;;;;;;0.80;0.60;;;;;;;-143.84;84.02;45231.88;5089735;28;20809;-57
2024/01/28 06:24:12;;;;;;;0.80;0.60;;;;;;;-143.84;84.46;45235.69;5089111;28;20442;-56
2024/01/28 06:26:41;;;;;;;1.03;0.93;;;;;;;-143.84;84.13;45218.53;5089890;28;20504;-57
2024/01/28 06:29:09;;;;;;;0.80;0.50;;;;;;;-143.84;84.75;45269.97;5089383;28;20436;-57
2024/01/28 06:31:36;;;;;;;0.80;0.43;;;;;;;-143.84;84.71;45237.59;5089751;28;20914;-57
2024/01/28 06:34:04;;;;;;;0.80;0.60;;;;;;;-143.84;85.18;45249.00;5089638;28;20456;-57
2024/01/28 06:36:30;;;;;;;1.10;1.00;;;;;;;-143.84;85.26;45233.78;5089492;28;20524;-57
2024/01/28 06:38:57;;;;;;;4.50;1.67;;;;;;;-143.84;85.94;45229.97;5089045;28;20487;-57
2024/01/28 06:41:25;;;;;;;1.40;1.17;;;;;;;-143.84;86.02;45258.53;5089405;28;20433;-57
2024/01/28 06:43:53;;;;;;;0.90;0.60;;;;;;;-143.84;86.30;45245.19;5089254;28;20448;-57
2024/01/28 06:46:20;;;;;;;0.80;0.60;;;;;;;-143.84;86.35;45229.97;5089472;28;20448;-57
2024/01/28 06:48:47;;;;;;;0.90;0.80;;;;;;;-143.84;86.03;45243.31;5089657;28;20456;-57
2024/01/28 06:51:15;;;;;;;0.80;0.50;;;;;;;-143.84;86.37;45256.63;5089482;28;21009;-57
2024/01/28 06:53:42;;;;;;;0.80;0.40;;;;;;;-143.84;86.05;45256.63;5089242;28;20449;-57
2024/01/28 06:56:10;;;;;;;0.80;0.50;;;;;;;-143.84;86.42;45250.91;5089333;28;20442;-57
2024/01/28 06:58:37;;;;;;;3.20;0.83;;;;;;;-143.84;86.48;45241.41;5089297;28;20579;-57
2024/01/28 07:01:05;;;;;;;3.43;1.03;;;;;;;-143.84;86.17;45224.25;5089290;28;20500;-57
2024/01/28 07:03:32;;;;;;;5.13;0.90;;;;;;;-143.84;86.22;45258.53;5089087;28;20466;-57
2024/01/28 07:05:59;;;;;;;0.80;0.50;;;;;;;-143.84;86.08;45239.50;5088923;28;20501;-57
2024/01/28 07:08:27;;;;;;;1.07;0.93;;;;;;;-143.84;85.90;45235.69;5088858;28;20459;-57
2024/01/28 07:10:54;;;;;;;0.80;0.50;;;;;;;-143.84;85.64;45241.41;5084248;28;20438;-57
2024/01/28 07:13:21;;;;;;;0.80;0.50;;;;;;;-143.84;85.61;45231.88;5068618;28;20476;-57
2024/01/28 07:15:49;;;;;;;1.10;0.70;;;;;;;-143.84;85.72;45264.25;5069118;28;20441;-57
2024/01/28 07:18:18;;;;;;;0.80;0.50;;;;;;;-143.84;85.99;45241.41;5068620;28;20520;-57
2024/01/28 07:20:45;;;;;;;0.80;0.50;;;;;;;-143.84;86.17;45235.69;5068862;28;20439;-57
2024/01/28 07:23:12;;;;;;;0.80;0.63;;;;;;;-143.84;86.28;45252.81;5068731;28;21262;-57
2024/01/28 07:25:39;;;;;;;0.80;0.47;;;;;;;-143.84;86.80;45222.34;5068649;28;20449;-57
2024/01/28 07:28:06;;;;;;;0.80;0.60;;;;;;;-143.84;86.23;45235.69;5068657;28;20999;-57
2024/01/28 07:30:33;;;;;;;0.80;0.47;;;;;;;-143.84;86.34;45250.91;5068746;28;20988;-57
2024/01/28 07:33:00;;;;;;;0.80;0.50;;;;;;;-143.84;86.42;45266.16;5068703;28;20818;-57
2024/01/28 07:35:29;;;;;;;0.80;0.53;;;;;;;-143.84;86.24;45245.19;5069880;28;20430;-57
2024/01/28 07:37:56;;;;;;;0.80;0.60;;;;;;;-143.84;86.34;45245.19;5072540;28;21024;-57
2024/01/28 07:40:23;;;;;;;1.00;0.90;;;;;;;-143.84;86.53;45235.69;5072511;28;20493;-57
2024/01/28 07:42:50;;;;;;;0.80;0.47;;;;;;;-143.84;86.79;45235.69;5072461;28;20964;-57
2024/01/28 07:45:19;;;;;;;0.80;0.50;;;;;;;-143.84;86.61;45247.09;5072406;28;20937;-57
2024/01/28 07:47:46;;;;;;;0.80;0.40;;;;;;;-143.84;86.92;45237.59;5072400;28;20915;-57
2024/01/28 07:50:13;;;;;;;1.47;0.90;;;;;;;-143.84;86.99;45228.06;5072407;28;20441;-57
2024/01/28 07:52:43;;;;;;;0.80;0.50;;;;;;;-143.84;86.66;45249.00;5072169;28;20434;-57
2024/01/28 07:55:11;;;;;;;1.77;1.67;;;;;;;-143.84;86.87;45249.00;5072020;28;20447;-57
2024/01/28 07:57:39;;;;;;;0.80;0.50;;;;;;;-143.84;86.88;45233.78;5071935;28;20468;-57
2024/01/28 08:00:09;;;;;;;0.80;0.50;;;;;;;-143.84;86.78;45241.41;5071918;28;20442;-57
2024/01/28 08:02:37;;;;;;;0.80;0.40;;;;;;;-143.84;87.13;45226.16;5071982;28;20447;-56
2024/01/28 08:05:04;;;;;;;0.90;0.70;;;;;;;-143.84;87.70;45231.88;5072031;28;20446;-57
2024/01/28 08:07:31;;;;;;;1.00;0.90;;;;;;;-143.84;87.56;45245.19;5071934;28;20495;-57
2024/01/28 08:10:00;;;;;;;0.80;0.60;;;;;;;-143.84;87.63;45237.59;5072132;28;20437;-57
2024/01/28 08:12:28;;;;;;;0.80;0.50;;;;;;;-143.84;87.77;45243.31;5071635;28;20505;-57
2024/01/28 08:14:55;;;;;;;0.90;0.77;;;;;;;-143.84;87.59;45218.53;5071843;28;20434;-57
2024/01/28 08:17:22;;;;;;;0.80;0.50;;;;;;;-143.84;87.05;45258.53;5071810;28;20930;-57
2024/01/28 08:19:50;;;;;;;0.80;0.40;;;;;;;-143.84;86.94;45260.44;5071668;28;20865;-57
2024/01/28 08:22:17;;;;;;;1.07;0.97;;;;;;;-143.84;86.80;45209.03;5071804;28;20431;-57
2024/01/28 08:24:45;;;;;;;0.80;0.50;;;;;;;-143.84;87.00;45235.69;5071622;28;20441;-57
2024/01/28 08:27:13;;;;;;;1.07;0.90;;;;;;;-143.84;86.57;45250.91;5071644;28;20444;-57
2024/01/28 08:29:40;;;;;;;0.80;0.40;;;;;;;-143.84;86.02;45241.41;5071480;28;20949;-57
2024/01/28 08:32:08;;;;;;;0.80;0.50;;;;;;;-143.84;85.77;45247.09;5071676;28;20449;-57
2024/01/28 08:34:35;;;;;;;0.90;0.50;;;;;;;-143.84;85.43;45212.84;5071671;28;20440;-57
2024/01/28 08:37:03;;;;;;;0.80;0.50;;;;;;;-143.84;85.07;45260.44;5071370;28;20947;-57
2024/01/28 08:39:30;;;;;;;0.80;0.50;;;;;;;-143.84;84.87;45231.88;5071390;28;20533;-56
2024/01/28 08:41:59;;;;;;;0.87;0.67;;;;;;;-143.84;85.12;45216.63;5071207;28;20435;-56
2024/01/28 08:44:28;;;;;;;0.80;0.50;;;;;;;-143.84;84.51;45262.34;5071533;28;20450;-57
2024/01/28 08:46:55;;;;;;;0.80;0.40;;;;;;;-143.84;84.02;45249.00;5070744;28;20450;-57
2024/01/28 08:49:22;;;;;;;0.80;0.40;;;;;;;-143.84;83.67;45252.81;5070990;28;20435;-57
2024/01/28 08:51:49;;;;;;;0.80;0.60;;;;;;;-143.84;83.70;45209.03;5071250;28;20936;-56
2024/01/28 08:54:16;;;;;;;0.83;0.60;;;;;;;-143.84;83.98;45233.78;5070988;28;20435;-56
2024/01/28 08:56:43;;;;;;;1.03;0.90;;;;;;;-143.84;83.90;45203.31;5071346;28;20869;-57
2024/01/28 08:59:11;;;;;;;1.30;0.97;;;;;;;-143.84;83.88;45266.16;5070970;28;20472;-56
2024/01/28 09:01:40;;;;;;;0.80;0.40;;;;;;;-143.84;84.08;45245.19;5075435;28;20507;-57
2024/01/28 09:04:07;;;;;;;0.90;0.60;;;;;;;-143.84;83.88;45224.25;5091021;28;20442;-57
2024/01/28 09:06:35;;;;;;;0.80;0.50;;;;;;;-143.84;84.04;45207.13;5090975;28;20457;-57
2024/01/28 09:09:07;;;;;;;0.80;0.60;;;;;;;-143.84;84.28;45229.97;5091068;28;20446;-56
2024/01/28 09:11:35;;;;;;;0.80;0.40;;;;;;;-143.84;84.45;45235.69;5090905;28;21084;-57
2024/01/28 09:14:02;;;;;;;0.80;0.50;;;;;;;-143.84;84.54;45241.41;5091316;28;20438;-56
2024/01/28 09:16:29;;;;;;;0.90;0.77;;;;;;;-143.84;84.18;45216.63;5091009;28;21262;-57
2024/01/28 09:18:58;;;;;;;1.33;1.03;;;;;;;-143.84;84.03;45250.91;5090917;28;21349;-57
2024/01/28 09:21:25;;;;;;;0.80;0.50;;;;;;;-143.84;84.14;45243.31;5090481;28;20579;-57
2024/01/28 09:23:52;;;;;;;0.90;0.70;;;;;;;-143.84;83.78;45212.84;5090092;28;20495;-57
2024/01/28 09:26:19;;;;;;;0.80;0.50;;;;;;;-143.84;82.93;45212.84;5090591;28;20848;-57
2024/01/28 09:28:46;;;;;;;0.80;0.40;;;;;;;-143.84;83.01;45224.25;5090187;28;20433;-57
2024/01/28 09:31:13;;;;;;;0.80;0.40;;;;;;;-143.84;82.50;45228.06;5090365;28;20442;-57
2024/01/28 09:33:41;;;;;;;1.47;0.80;;;;;;;-143.84;83.03;45222.34;5073608;28;20455;-57
2024/01/28 09:36:10;;;;;;;0.80;0.50;;;;;;;-143.84;82.75;45237.59;5070401;28;20442;-57
2024/01/28 09:38:39;;;;;;;0.80;0.40;;;;;;;-143.84;82.65;45233.78;5070251;28;20480;-57
2024/01/28 09:41:16;;;;;;;0.80;0.47;;;;;;;-143.84;82.60;45247.09;5070304;28;20451;-58
2024/01/28 09:43:43;;;;;;;0.80;0.50;;;;;;;-143.84;82.71;45245.19;5070036;28;20449;-58
2024/01/28 09:46:10;;;;;;;0.80;0.40;;;;;;;-143.84;82.92;45235.69;5070219;28;20526;-57
2024/01/28 09:48:38;;;;;;;1.20;0.90;;;;;;;-143.84;83.14;45235.69;5069927;28;20440;-57
2024/01/28 09:51:05;;;;;;;1.20;0.97;;;;;;;-143.84;83.13;45210.94;5070058;28;20442;-57
2024/01/28 09:53:34;;;;;;;0.80;0.40;;;;;;;-143.84;82.52;45222.34;5070057;28;20444;-57
2024/01/28 09:56:02;;;;;;;0.80;0.47;;;;;;;-143.84;81.57;45231.88;5069951;28;20455;-57
2024/01/28 09:58:29;;;;;;;0.93;0.83;;;;;;;-143.84;81.73;45226.16;5069198;28;20487;-57
2024/01/28 10:00:57;;;;;;;0.80;0.50;;;;;;;-143.84;81.00;45231.88;5070089;28;20440;-57
2024/01/28 10:03:24;;;;;;;0.80;0.40;;;;;;;-143.84;80.70;45216.63;5069838;28;21324;-57
2024/01/28 10:05:51;;;;;;;0.80;0.50;;;;;;;-143.84;81.02;45229.97;5069822;28;20439;-57
2024/01/28 10:08:19;;;;;;;0.80;0.50;;;;;;;-143.84;81.16;45209.03;5070629;28;20528;-57
2024/01/28 10:10:48;;;;;;;0.80;0.40;;;;;;;-143.84;80.72;45222.34;5073437;28;20812;-57
2024/01/28 10:13:15;;;;;;;0.90;0.80;;;;;;;-143.84;80.93;45256.63;5089623;28;20487;-57
2024/01/28 10:15:42;;;;;;;0.80;0.70;;;;;;;-143.84;81.41;45250.91;5088131;28;20446;-57
2024/01/28 10:18:10;;;;;;;0.90;0.80;;;;;;;-143.84;81.16;45233.78;5075006;28;20455;-57
2024/01/28 10:20:37;;;;;;;0.80;0.50;;;;;;;-143.84;80.83;45233.78;5076703;28;20808;-57
2024/01/28 10:23:04;;;;;;;0.80;0.50;;;;;;;-143.84;80.84;45229.97;5080184;28;20988;-58
2024/01/28 10:25:32;;;;;;;0.80;0.40;;;;;;;-143.84;80.84;45216.63;5079850;28;20852;-57
2024/01/28 10:28:01;;;;;;;0.80;0.40;;;;;;;-143.84;80.61;45249.00;5089588;28;20517;-57
2024/01/28 10:30:29;;;;;;;0.83;0.60;;;;;;;-143.84;80.72;45212.84;5088485;28;20532;-57
2024/01/28 10:32:56;;;;;;;0.80;0.57;;;;;;;-143.84;80.73;45212.84;5077153;28;20453;-57
2024/01/28 10:35:25;;;;;;;0.90;0.73;;;;;;;-143.84;80.80;45252.81;5089825;28;20452;-57
2024/01/28 10:37:53;;;;;;;0.80;0.60;;;;;;;-143.84;80.86;45207.13;5077863;28;20459;-57
2024/01/28 10:40:21;;;;;;;0.80;0.50;;;;;;;-143.84;80.85;45201.41;5069112;28;20998;-57
2024/01/28 10:42:51;;;;;;;0.80;0.50;;;;;;;-143.84;80.87;45247.09;5069252;28;20769;-57
2024/01/28 10:45:22;;;;;;;3.17;2.93;;;;;;;-143.84;81.41;45237.59;5069251;28;20462;-57
2024/01/28 10:47:53;;;;;;;0.80;0.80;;;;;;;-143.84;81.58;45231.88;5069349;28;20518;-57
2024/01/28 10:50:21;;;;;;;3.27;2.13;;;;;;;-143.84;81.36;45229.97;5072935;28;20459;-57
2024/01/28 10:52:50;;;;;;;0.80;0.50;;;;;;;-143.84;81.10;45209.03;5075339;28;20524;-57
2024/01/28 10:55:17;;;;;;;0.80;0.47;;;;;;;-143.84;81.32;45245.19;5079271;28;20458;-57
2024/01/28 10:57:46;;;;;;;0.80;0.50;;;;;;;-143.84;81.04;45239.50;5077226;28;20442;-57
2024/01/28 11:00:20;;;;;;;1.00;0.83;;;;;;;-143.84;80.96;45228.06;5077621;28;20498;-57
2024/01/28 11:02:50;;;;;;;0.80;0.60;;;;;;;-143.84;80.23;45235.69;5075931;28;20450;-57
2024/01/28 11:05:18;;;;;;;1.00;0.80;;;;;;;-143.84;80.40;45241.41;5077265;28;20490;-57
2024/01/28 11:07:45;;;;;;;1.20;0.70;;;;;;;-143.84;80.68;45203.31;5077336;28;20868;-57
2024/01/28 11:10:12;;;;;;;0.80;0.40;;;;;;;-143.84;80.37;45199.50;5087411;28;20821;-57
2024/01/28 11:12:40;;;;;;;0.80;0.50;;;;;;;-143.84;80.59;45224.25;5085400;28;20491;-57
2024/01/28 11:15:13;;;;;;;1.03;0.90;;;;;;;-143.84;80.94;45222.34;5088192;28;20617;-57
2024/01/28 11:17:40;;;;;;;0.80;0.50;;;;;;;-143.84;81.04;45229.97;5084861;28;20524;-57